createdAt,value
2018-04-11T00:00:25.747Z,981.92
2018-04-11T00:01:25.839Z,981.90
2018-04-11T00:02:25.924Z,981.94
2018-04-11T00:03:26.007Z,981.92
2018-04-11T00:04:26.119Z,981.93
2018-04-11T00:05:26.208Z,981.94
2018-04-11T00:06:26.300Z,981.97
2018-04-11T00:07:26.386Z,982.01
2018-04-11T00:08:26.500Z,982.01
2018-04-11T00:09:26.600Z,981.98
2018-04-11T00:10:26.693Z,982.00
2018-04-11T00:11:26.780Z,982.03
2018-04-11T00:12:26.867Z,982.01
2018-04-11T00:13:26.980Z,981.97
2018-04-11T00:14:27.065Z,982.01
2018-04-11T00:15:27.160Z,981.98
2018-04-11T00:16:27.251Z,982.03
2018-04-11T00:17:27.340Z,982.04
2018-04-11T00:18:27.431Z,982.01
2018-04-11T00:19:27.514Z,982.03
2018-04-11T00:20:27.607Z,982.02
2018-04-11T00:21:27.690Z,982.03
2018-04-11T00:22:27.794Z,982.03
2018-04-11T00:23:27.886Z,982.01
2018-04-11T00:24:27.989Z,982.00
2018-04-11T00:25:28.094Z,981.98
2018-04-11T00:26:28.178Z,981.97
2018-04-11T00:27:28.288Z,981.95
2018-04-11T00:28:28.394Z,981.93
2018-04-11T00:29:28.483Z,981.94
2018-04-11T00:30:28.568Z,981.95
2018-04-11T00:31:28.656Z,981.94
2018-04-11T00:32:28.753Z,981.97
2018-04-11T00:33:28.852Z,981.92
2018-04-11T00:34:28.935Z,981.95
2018-04-11T00:35:29.026Z,981.92
2018-04-11T00:36:29.106Z,981.94
2018-04-11T00:37:29.190Z,981.89
2018-04-11T00:38:29.285Z,981.91
2018-04-11T00:39:29.362Z,981.90
2018-04-11T00:40:29.445Z,981.88
2018-04-11T00:41:29.561Z,981.88
2018-04-11T00:42:29.646Z,981.88
2018-04-11T00:43:29.731Z,981.88
2018-04-11T00:44:29.807Z,981.91
2018-04-11T00:45:29.884Z,981.86
2018-04-11T00:46:29.978Z,981.93
2018-04-11T00:47:30.065Z,981.91
2018-04-11T00:48:30.160Z,981.91
2018-04-11T00:49:30.245Z,981.90
2018-04-11T00:50:30.339Z,981.88
2018-04-11T00:51:30.428Z,981.86
2018-04-11T00:52:30.535Z,981.89
2018-04-11T00:53:30.621Z,981.92
2018-04-11T00:54:30.710Z,981.92
2018-04-11T00:55:30.816Z,981.92
2018-04-11T00:56:30.890Z,981.91
2018-04-11T00:57:30.985Z,981.92
2018-04-11T00:58:31.070Z,981.93
2018-04-11T00:59:31.184Z,981.90
2018-04-11T01:00:31.293Z,981.89
2018-04-11T01:01:31.381Z,981.96
2018-04-11T01:02:31.461Z,981.91
2018-04-11T01:03:31.621Z,981.92
2018-04-11T01:04:31.707Z,981.90
2018-04-11T01:05:31.804Z,981.90
2018-04-11T01:06:31.897Z,981.97
2018-04-11T01:07:31.976Z,981.95
2018-04-11T01:08:32.072Z,981.96
2018-04-11T01:09:32.167Z,981.94
2018-04-11T01:10:32.251Z,981.92
2018-04-11T01:11:32.349Z,981.89
2018-04-11T01:12:32.434Z,981.89
2018-04-11T01:13:32.515Z,981.90
2018-04-11T01:14:32.621Z,981.89
2018-04-11T01:15:32.711Z,981.91
2018-04-11T01:16:32.795Z,981.90
2018-04-11T01:17:32.897Z,981.98
2018-04-11T01:18:32.983Z,981.90
2018-04-11T01:19:33.079Z,981.93
2018-04-11T01:20:33.171Z,981.90
2018-04-11T01:21:33.246Z,981.90
2018-04-11T01:22:33.326Z,981.91
2018-04-11T01:23:33.426Z,981.89
2018-04-11T01:24:33.520Z,981.89
2018-04-11T01:25:33.623Z,981.87
2018-04-11T01:26:33.721Z,981.93
2018-04-11T01:27:33.816Z,981.93
2018-04-11T01:28:33.897Z,981.89
2018-04-11T01:29:33.968Z,981.94
2018-04-11T01:30:34.059Z,981.90
2018-04-11T01:31:34.152Z,981.91
2018-04-11T01:32:34.244Z,981.93
2018-04-11T01:33:34.329Z,981.93
2018-04-11T01:34:34.418Z,981.90
2018-04-11T01:35:34.518Z,981.92
2018-04-11T01:36:34.608Z,981.91
2018-04-11T01:37:34.703Z,981.94
2018-04-11T01:38:34.785Z,981.97
2018-04-11T01:39:34.876Z,981.95
2018-04-11T01:40:34.994Z,981.98
2018-04-11T01:41:35.090Z,981.98
2018-04-11T01:42:35.189Z,981.98
2018-04-11T01:43:35.286Z,981.98
2018-04-11T01:44:35.381Z,981.99
2018-04-11T01:45:35.474Z,981.94
2018-04-11T01:46:35.569Z,981.96
2018-04-11T01:47:35.660Z,981.92
2018-04-11T01:48:35.765Z,981.93
2018-04-11T01:49:35.858Z,981.90
2018-04-11T01:50:35.957Z,981.91
2018-04-11T01:51:36.047Z,981.89
2018-04-11T01:52:36.143Z,981.87
2018-04-11T01:53:36.237Z,981.91
2018-04-11T01:54:36.331Z,981.89
2018-04-11T01:55:36.424Z,981.87
2018-04-11T01:56:36.519Z,981.88
2018-04-11T01:57:36.615Z,981.87
2018-04-11T01:58:36.707Z,981.87
2018-04-11T01:59:36.803Z,981.88
2018-04-11T02:00:36.898Z,981.84
2018-04-11T02:01:36.992Z,981.85
2018-04-11T02:02:37.093Z,981.87
2018-04-11T02:03:37.184Z,981.83
2018-04-11T02:04:37.283Z,981.82
2018-04-11T02:05:37.372Z,981.79
2018-04-11T02:06:37.466Z,981.74
2018-04-11T02:07:37.559Z,981.74
2018-04-11T02:08:37.657Z,981.74
2018-04-11T02:09:37.769Z,981.75
2018-04-11T02:10:37.846Z,981.72
2018-04-11T02:11:37.942Z,981.76
2018-04-11T02:12:38.034Z,981.75
2018-04-11T02:13:38.130Z,981.77
2018-04-11T02:14:38.221Z,981.80
2018-04-11T02:15:38.316Z,981.81
2018-04-11T02:16:38.413Z,981.80
2018-04-11T02:17:38.508Z,981.83
2018-04-11T02:18:38.602Z,981.81
2018-04-11T02:19:38.697Z,981.84
2018-04-11T02:20:38.792Z,981.84
2018-04-11T02:21:38.891Z,981.89
2018-04-11T02:22:38.984Z,981.90
2018-04-11T02:23:39.078Z,981.88
2018-04-11T02:24:39.225Z,981.90
2018-04-11T02:25:39.274Z,981.89
2018-04-11T02:26:39.366Z,981.90
2018-04-11T02:27:39.461Z,981.92
2018-04-11T02:28:39.551Z,981.91
2018-04-11T02:29:39.646Z,981.93
2018-04-11T02:30:39.738Z,981.92
2018-04-11T02:31:39.839Z,981.92
2018-04-11T02:32:39.932Z,981.90
2018-04-11T02:33:40.032Z,981.89
2018-04-11T02:34:40.139Z,981.93
2018-04-11T02:35:40.234Z,981.93
2018-04-11T02:36:40.332Z,981.97
2018-04-11T02:37:40.427Z,981.96
2018-04-11T02:38:40.523Z,982.00
2018-04-11T02:39:40.622Z,981.97
2018-04-11T02:40:40.716Z,981.96
2018-04-11T02:41:40.827Z,981.95
2018-04-11T02:42:40.908Z,981.93
2018-04-11T02:43:41.001Z,981.91
2018-04-11T02:44:41.101Z,981.94
2018-04-11T02:45:41.191Z,981.94
2018-04-11T02:46:41.287Z,981.91
2018-04-11T02:47:41.382Z,981.86
2018-04-11T02:48:41.474Z,981.87
2018-04-11T02:49:41.567Z,981.87
2018-04-11T02:50:41.663Z,981.85
2018-04-11T02:51:41.759Z,981.88
2018-04-11T02:52:41.852Z,981.85
2018-04-11T02:53:41.946Z,981.84
2018-04-11T02:54:42.040Z,981.85
2018-04-11T02:55:42.134Z,981.77
2018-04-11T02:56:42.228Z,981.75
2018-04-11T02:57:42.320Z,981.76
2018-04-11T02:58:42.417Z,981.76
2018-04-11T02:59:42.509Z,981.74
2018-04-11T03:00:42.606Z,981.77
2018-04-11T03:01:42.699Z,981.79
2018-04-11T03:02:42.791Z,981.82
2018-04-11T03:03:42.888Z,981.84
2018-04-11T03:04:42.982Z,981.92
2018-04-11T03:05:43.080Z,981.94
2018-04-11T03:06:43.170Z,981.92
2018-04-11T03:07:43.293Z,981.89
2018-04-11T03:08:43.388Z,981.91
2018-04-11T03:09:43.481Z,981.95
2018-04-11T03:10:43.578Z,981.97
2018-04-11T03:11:43.677Z,981.99
2018-04-11T03:12:43.772Z,981.96
2018-04-11T03:13:43.860Z,981.93
2018-04-11T03:14:43.956Z,981.89
2018-04-11T03:15:44.056Z,981.88
2018-04-11T03:16:44.144Z,981.90
2018-04-11T03:17:44.240Z,981.93
2018-04-11T03:18:44.333Z,981.93
2018-04-11T03:19:44.428Z,981.95
2018-04-11T03:20:44.520Z,981.93
2018-04-11T03:21:44.615Z,981.94
2018-04-11T03:22:44.711Z,981.94
2018-04-11T03:23:44.806Z,981.98
2018-04-11T03:24:44.900Z,982.02
2018-04-11T03:25:44.996Z,982.02
2018-04-11T03:26:45.089Z,982.03
2018-04-11T03:27:45.186Z,982.01
2018-04-11T03:28:45.280Z,982.04
2018-04-11T03:29:45.373Z,982.03
2018-04-11T03:30:45.475Z,982.05
2018-04-11T03:31:45.566Z,982.05
2018-04-11T03:32:45.661Z,982.11
2018-04-11T03:33:45.757Z,982.14
2018-04-11T03:34:45.853Z,982.16
2018-04-11T03:35:45.944Z,982.19
2018-04-11T03:36:46.036Z,982.20
2018-04-11T03:37:46.130Z,982.22
2018-04-11T03:38:46.232Z,982.24
2018-04-11T03:39:46.316Z,982.23
2018-04-11T03:40:46.408Z,982.17
2018-04-11T03:41:46.501Z,982.13
2018-04-11T03:42:46.595Z,982.09
2018-04-11T03:43:46.694Z,982.10
2018-04-11T03:44:46.790Z,982.16
2018-04-11T03:45:46.883Z,982.16
2018-04-11T03:46:46.976Z,982.14
2018-04-11T03:47:47.068Z,982.15
2018-04-11T03:48:47.165Z,982.10
2018-04-11T03:49:47.259Z,982.14
2018-04-11T03:50:47.355Z,982.12
2018-04-11T03:51:47.447Z,982.14
2018-04-11T03:52:47.544Z,982.12
2018-04-11T03:53:47.681Z,982.12
2018-04-11T03:54:47.740Z,982.17
2018-04-11T03:55:47.821Z,982.17
2018-04-11T03:56:47.915Z,982.14
2018-04-11T03:57:48.013Z,982.13
2018-04-11T03:58:48.110Z,982.09
2018-04-11T03:59:48.202Z,982.05
2018-04-11T04:00:48.295Z,982.09
2018-04-11T04:01:48.386Z,982.09
2018-04-11T04:02:48.481Z,982.11
2018-04-11T04:03:48.575Z,982.10
2018-04-11T04:04:48.672Z,982.07
2018-04-11T04:05:48.766Z,982.07
2018-04-11T04:06:48.863Z,982.05
2018-04-11T04:07:48.985Z,982.06
2018-04-11T04:08:49.051Z,982.06
2018-04-11T04:09:49.144Z,982.07
2018-04-11T04:10:49.238Z,982.11
2018-04-11T04:11:49.334Z,982.09
2018-04-11T04:12:49.431Z,982.08
2018-04-11T04:13:49.595Z,982.17
2018-04-11T04:14:49.624Z,982.16
2018-04-11T04:15:49.718Z,982.17
2018-04-11T04:16:49.815Z,982.15
2018-04-11T04:17:49.909Z,982.14
2018-04-11T04:18:50.000Z,982.20
2018-04-11T04:19:50.169Z,982.19
2018-04-11T04:20:50.202Z,982.15
2018-04-11T04:21:50.292Z,982.17
2018-04-11T04:22:50.388Z,982.18
2018-04-11T04:23:50.484Z,982.18
2018-04-11T04:24:50.574Z,982.19
2018-04-11T04:25:50.674Z,982.19
2018-04-11T04:26:50.773Z,982.20
2018-04-11T04:27:50.869Z,982.25
2018-04-11T04:28:50.962Z,982.23
2018-04-11T04:29:51.055Z,982.23
2018-04-11T04:30:51.151Z,982.27
2018-04-11T04:31:51.246Z,982.29
2018-04-11T04:32:51.338Z,982.29
2018-04-11T04:33:51.435Z,982.35
2018-04-11T04:34:51.537Z,982.35
2018-04-11T04:35:51.623Z,982.35
2018-04-11T04:36:51.720Z,982.37
2018-04-11T04:37:51.816Z,982.39
2018-04-11T04:38:51.908Z,982.44
2018-04-11T04:39:52.005Z,982.45
2018-04-11T04:40:52.097Z,982.47
2018-04-11T04:41:52.192Z,982.49
2018-04-11T04:42:52.298Z,982.49
2018-04-11T04:43:52.948Z,982.50
2018-04-11T04:44:52.542Z,982.53
2018-04-11T04:45:52.640Z,982.52
2018-04-11T04:46:52.740Z,982.53
2018-04-11T04:47:52.840Z,982.55
2018-04-11T04:48:52.957Z,982.58
2018-04-11T04:49:53.039Z,982.59
2018-04-11T04:50:53.124Z,982.56
2018-04-11T04:51:53.220Z,982.53
2018-04-11T04:52:53.339Z,982.50
2018-04-11T04:53:53.469Z,982.47
2018-04-11T04:54:53.562Z,982.48
2018-04-11T04:55:53.662Z,982.47
2018-04-11T04:56:53.761Z,982.49
2018-04-11T04:57:54.372Z,982.52
2018-04-11T04:58:53.935Z,982.51
2018-04-11T04:59:54.725Z,982.50
2018-04-11T05:00:54.215Z,982.52
2018-04-11T05:01:54.361Z,982.53
2018-04-11T05:02:54.443Z,982.56
2018-04-11T05:03:54.738Z,982.57
2018-04-11T05:04:54.812Z,982.55
2018-04-11T05:05:54.716Z,982.57
2018-04-11T05:06:54.863Z,982.59
2018-04-11T05:07:54.884Z,982.60
2018-04-11T05:08:54.922Z,982.63
2018-04-11T05:09:55.084Z,982.61
2018-04-11T05:10:55.235Z,982.61
2018-04-11T05:11:55.429Z,982.66
2018-04-11T05:12:55.396Z,982.67
2018-04-11T05:13:55.523Z,982.64
2018-04-11T05:14:55.642Z,982.68
2018-04-11T05:15:55.828Z,982.70
2018-04-11T05:16:55.858Z,982.65
2018-04-11T05:17:56.293Z,982.68
2018-04-11T05:18:56.373Z,982.69
2018-04-11T05:19:56.216Z,982.74
2018-04-11T05:20:56.174Z,982.72
2018-04-11T05:21:56.262Z,982.74
2018-04-11T05:22:56.361Z,982.78
2018-04-11T05:23:56.443Z,982.80
2018-04-11T05:24:56.546Z,982.81
2018-04-11T05:25:56.633Z,982.84
2018-04-11T05:26:56.787Z,982.85
2018-04-11T05:27:56.868Z,982.88
2018-04-11T05:28:56.994Z,982.90
2018-04-11T05:29:57.081Z,982.91
2018-04-11T05:30:57.182Z,982.90
2018-04-11T05:31:57.272Z,982.92
2018-04-11T05:32:57.360Z,982.97
2018-04-11T05:33:57.445Z,982.97
2018-04-11T05:34:57.551Z,983.00
2018-04-11T05:35:57.661Z,982.97
2018-04-11T05:36:58.760Z,982.97
2018-04-11T05:37:57.884Z,982.97
2018-04-11T05:38:57.900Z,982.98
2018-04-11T05:39:58.052Z,982.98
2018-04-11T05:40:58.017Z,982.99
2018-04-11T05:41:58.118Z,982.93
2018-04-11T05:42:58.214Z,982.96
2018-04-11T05:43:58.293Z,983.01
2018-04-11T05:44:58.438Z,983.01
2018-04-11T05:45:58.672Z,982.96
2018-04-11T05:46:58.662Z,983.02
2018-04-11T05:47:58.779Z,983.05
2018-04-11T05:48:58.907Z,983.05
2018-04-11T05:49:58.914Z,983.02
2018-04-11T05:50:59.030Z,983.07
2018-04-11T05:51:59.179Z,983.09
2018-04-11T05:52:59.167Z,983.12
2018-04-11T05:53:59.286Z,983.11
2018-04-11T05:54:59.378Z,983.13
2018-04-11T05:55:59.467Z,983.13
2018-04-11T05:56:59.573Z,983.17
2018-04-11T05:57:59.671Z,983.17
2018-04-11T05:58:59.788Z,983.15
2018-04-11T05:59:59.891Z,983.16
2018-04-11T06:01:00.002Z,983.22
2018-04-11T06:02:00.105Z,983.22
2018-04-11T06:03:00.230Z,983.23
2018-04-11T06:04:00.331Z,983.25
2018-04-11T06:05:00.430Z,983.27
2018-04-11T06:06:00.549Z,983.28
2018-04-11T06:07:00.669Z,983.25
2018-04-11T06:08:00.767Z,983.28
2018-04-11T06:09:00.858Z,983.28
2018-04-11T06:10:01.003Z,983.29
2018-04-11T06:11:01.115Z,983.32
2018-04-11T06:12:01.223Z,983.33
2018-04-11T06:13:01.312Z,983.33
2018-04-11T06:14:01.389Z,983.37
2018-04-11T06:15:01.471Z,983.33
2018-04-11T06:16:01.590Z,983.34
2018-04-11T06:17:01.695Z,983.36
2018-04-11T06:18:01.788Z,983.38
2018-04-11T06:19:01.918Z,983.39
2018-04-11T06:20:02.133Z,983.40
2018-04-11T06:21:02.092Z,983.42
2018-04-11T06:22:02.200Z,983.43
2018-04-11T06:23:02.359Z,983.40
2018-04-11T06:24:02.419Z,983.42
2018-04-11T06:25:02.518Z,983.44
2018-04-11T06:26:02.628Z,983.43
2018-04-11T06:27:02.777Z,983.46
2018-04-11T06:28:02.843Z,983.44
2018-04-11T06:29:02.879Z,983.46
2018-04-11T06:30:02.981Z,983.47
2018-04-11T06:31:03.246Z,983.50
2018-04-11T06:32:03.126Z,983.50
2018-04-11T06:33:03.224Z,983.47
2018-04-11T06:34:03.276Z,983.50
2018-04-11T06:35:03.419Z,983.50
2018-04-11T06:36:03.481Z,983.52
2018-04-11T06:37:03.582Z,983.55
2018-04-11T06:38:03.709Z,983.52
2018-04-11T06:39:03.922Z,983.60
2018-04-11T06:40:03.936Z,983.55
2018-04-11T06:41:04.046Z,983.54
2018-04-11T06:42:04.163Z,983.54
2018-04-11T06:43:04.235Z,983.56
2018-04-11T06:44:04.332Z,983.54
2018-04-11T06:45:04.433Z,983.52
2018-04-11T06:46:04.524Z,983.54
2018-04-11T06:47:04.618Z,983.54
2018-04-11T06:48:04.751Z,983.57
2018-04-11T06:49:04.861Z,983.52
2018-04-11T06:50:04.950Z,983.53
2018-04-11T06:51:05.090Z,983.51
2018-04-11T06:52:05.212Z,983.49
2018-04-11T06:53:05.309Z,983.48
2018-04-11T06:54:05.408Z,983.47
2018-04-11T06:55:05.488Z,983.52
2018-04-11T06:56:05.581Z,983.56
2018-04-11T06:57:05.676Z,983.60
2018-04-11T06:58:05.772Z,983.60
2018-04-11T06:59:05.867Z,983.62
2018-04-11T07:00:05.974Z,983.59
2018-04-11T07:01:06.094Z,983.60
2018-04-11T07:02:06.469Z,983.58
2018-04-11T07:03:06.212Z,983.58
2018-04-11T07:04:06.297Z,983.56
2018-04-11T07:05:09.182Z,983.58
2018-04-11T07:06:06.437Z,983.59
2018-04-11T07:07:06.532Z,983.61
2018-04-11T07:08:06.658Z,983.60
2018-04-11T07:09:06.745Z,983.63
2018-04-11T07:10:06.831Z,983.68
2018-04-11T07:11:06.881Z,983.68
2018-04-11T07:12:06.990Z,983.73
2018-04-11T07:13:07.104Z,983.71
2018-04-11T07:14:07.205Z,983.72
2018-04-11T07:15:07.303Z,983.72
2018-04-11T07:16:07.431Z,983.75
2018-04-11T07:17:07.557Z,983.77
2018-04-11T07:18:07.679Z,983.78
2018-04-11T07:19:07.781Z,983.84
2018-04-11T07:20:07.954Z,983.81
2018-04-11T07:21:07.916Z,983.85
2018-04-11T07:22:07.983Z,983.84
2018-04-11T07:23:08.074Z,983.86
2018-04-11T07:24:08.205Z,983.83
2018-04-11T07:25:08.306Z,983.84
2018-04-11T07:26:09.895Z,983.82
2018-04-11T07:27:08.496Z,983.83
2018-04-11T07:28:08.592Z,983.84
2018-04-11T07:29:08.682Z,983.88
2018-04-11T07:30:08.816Z,983.86
2018-04-11T07:31:08.807Z,983.87
2018-04-11T07:32:09.072Z,983.85
2018-04-11T07:33:09.204Z,983.86
2018-04-11T07:34:09.169Z,983.87
2018-04-11T07:35:09.262Z,983.84
2018-04-11T07:36:09.359Z,983.86
2018-04-11T07:37:09.453Z,983.87
2018-04-11T07:38:09.554Z,983.90
2018-04-11T07:39:09.648Z,983.87
2018-04-11T07:40:09.826Z,983.85
2018-04-11T07:41:09.839Z,983.82
2018-04-11T07:42:09.923Z,983.84
2018-04-11T07:43:10.015Z,983.85
2018-04-11T07:44:10.120Z,983.85
2018-04-11T07:45:10.214Z,983.83
2018-04-11T07:46:10.366Z,983.82
2018-04-11T07:47:10.420Z,983.86
2018-04-11T07:48:10.520Z,983.87
2018-04-11T07:49:10.629Z,983.89
2018-04-11T07:50:10.738Z,983.87
2018-04-11T07:51:10.843Z,983.91
2018-04-11T07:52:10.935Z,983.93
2018-04-11T07:53:11.027Z,983.93
2018-04-11T07:54:11.125Z,983.95
2018-04-11T07:55:11.219Z,983.92
2018-04-11T07:56:11.314Z,983.97
2018-04-11T07:57:11.411Z,983.94
2018-04-11T07:58:11.502Z,983.93
2018-04-11T07:59:11.601Z,983.97
2018-04-11T08:00:11.693Z,983.98
2018-04-11T08:01:11.799Z,983.97
2018-04-11T08:02:11.893Z,984.00
2018-04-11T08:03:12.079Z,983.99
2018-04-11T08:04:12.085Z,984.02
2018-04-11T08:05:12.185Z,984.02
2018-04-11T08:06:12.278Z,984.05
2018-04-11T08:07:12.380Z,984.03
2018-04-11T08:08:12.477Z,984.09
2018-04-11T08:09:12.574Z,984.11
2018-04-11T08:10:12.671Z,984.13
2018-04-11T08:11:12.797Z,984.19
2018-04-11T08:12:12.857Z,984.13
2018-04-11T08:13:12.969Z,984.14
2018-04-11T08:14:13.077Z,984.25
2018-04-11T08:15:13.181Z,984.22
2018-04-11T08:16:13.284Z,984.26
2018-04-11T08:17:13.374Z,984.27
2018-04-11T08:18:13.469Z,984.27
2018-04-11T08:19:13.565Z,984.29
2018-04-11T08:20:13.661Z,984.30
2018-04-11T08:21:13.762Z,984.29
2018-04-11T08:22:13.854Z,984.30
2018-04-11T08:23:13.963Z,984.29
2018-04-11T08:24:14.040Z,984.33
2018-04-11T08:25:14.135Z,984.34
2018-04-11T08:26:14.230Z,984.34
2018-04-11T08:27:14.329Z,984.27
2018-04-11T08:28:14.428Z,984.35
2018-04-11T08:29:14.534Z,984.32
2018-04-11T08:30:14.633Z,984.28
2018-04-11T08:31:14.730Z,984.33
2018-04-11T08:32:14.827Z,984.35
2018-04-11T08:33:14.919Z,984.31
2018-04-11T08:34:15.016Z,984.30
2018-04-11T08:35:15.113Z,984.38
2018-04-11T08:36:15.208Z,984.38
2018-04-11T08:37:15.306Z,984.39
2018-04-11T08:38:15.402Z,984.35
2018-04-11T08:39:15.499Z,984.37
2018-04-11T08:40:15.595Z,984.39
2018-04-11T08:41:15.732Z,984.41
2018-04-11T08:42:15.825Z,984.40
2018-04-11T08:43:15.928Z,984.39
2018-04-11T08:44:16.017Z,984.36
2018-04-11T08:45:16.112Z,984.32
2018-04-11T08:46:16.214Z,984.37
2018-04-11T08:47:16.305Z,984.34
2018-04-11T08:48:16.403Z,984.34
2018-04-11T08:49:16.499Z,984.38
2018-04-11T08:50:16.590Z,984.39
2018-04-11T08:51:16.684Z,984.44
2018-04-11T08:52:16.778Z,984.43
2018-04-11T08:53:16.879Z,984.49
2018-04-11T08:54:16.977Z,984.45
2018-04-11T08:55:17.072Z,984.50
2018-04-11T08:56:17.173Z,984.48
2018-04-11T08:57:17.269Z,984.54
2018-04-11T08:58:17.367Z,984.53
2018-04-11T08:59:17.464Z,984.52
2018-04-11T09:00:17.562Z,984.52
2018-04-11T09:01:17.655Z,984.54
2018-04-11T09:02:17.755Z,984.52
2018-04-11T09:03:17.856Z,984.53
2018-04-11T09:04:17.951Z,984.57
2018-04-11T09:05:18.047Z,984.55
2018-04-11T09:06:18.144Z,984.50
2018-04-11T09:07:18.238Z,984.56
2018-04-11T09:08:18.337Z,984.56
2018-04-11T09:09:18.432Z,984.56
2018-04-11T09:10:18.520Z,984.56
2018-04-11T09:11:18.620Z,984.58
2018-04-11T09:12:18.711Z,984.53
2018-04-11T09:13:18.806Z,984.56
2018-04-11T09:14:18.902Z,984.56
2018-04-11T09:15:18.991Z,984.55
2018-04-11T09:16:19.103Z,984.57
2018-04-11T09:17:19.210Z,984.59
2018-04-11T09:18:19.301Z,984.57
2018-04-11T09:19:19.402Z,984.56
2018-04-11T09:20:19.500Z,984.64
2018-04-11T09:21:19.598Z,984.63
2018-04-11T09:22:19.729Z,984.61
2018-04-11T09:23:19.751Z,984.63
2018-04-11T09:24:19.847Z,984.61
2018-04-11T09:25:19.946Z,984.65
2018-04-11T09:26:20.046Z,984.60
2018-04-11T09:27:20.190Z,984.62
2018-04-11T09:28:20.187Z,984.57
2018-04-11T09:29:20.286Z,984.58
2018-04-11T09:30:20.382Z,984.60
2018-04-11T09:31:20.478Z,984.61
2018-04-11T09:32:20.571Z,984.59
2018-04-11T09:33:20.678Z,984.59
2018-04-11T09:34:20.782Z,984.64
2018-04-11T09:35:20.878Z,984.61
2018-04-11T09:36:20.989Z,984.64
2018-04-11T09:37:21.086Z,984.63
2018-04-11T09:38:21.181Z,984.63
2018-04-11T09:39:21.280Z,984.62
2018-04-11T09:40:21.377Z,984.60
2018-04-11T09:41:21.476Z,984.60
2018-04-11T09:42:21.572Z,984.61
2018-04-11T09:43:21.663Z,984.59
2018-04-11T09:44:21.761Z,984.58
2018-04-11T09:45:21.856Z,984.62
2018-04-11T09:46:21.951Z,984.66
2018-04-11T09:47:22.130Z,984.65
2018-04-11T09:48:22.101Z,984.62
2018-04-11T09:49:22.179Z,984.69
2018-04-11T09:50:22.278Z,984.68
2018-04-11T09:51:22.396Z,984.71
2018-04-11T09:52:22.495Z,984.73
2018-04-11T09:53:22.599Z,984.74
2018-04-11T09:54:22.696Z,984.71
2018-04-11T09:55:22.787Z,984.72
2018-04-11T09:56:22.885Z,984.72
2018-04-11T09:57:23.112Z,984.71
2018-04-11T09:58:23.107Z,984.73
2018-04-11T09:59:23.090Z,984.70
2018-04-11T10:00:23.255Z,984.73
2018-04-11T10:01:27.478Z,984.74
2018-04-11T10:02:23.404Z,984.76
2018-04-11T10:03:23.888Z,984.77
2018-04-11T10:04:23.621Z,984.79
2018-04-11T10:05:23.759Z,984.80
2018-04-11T10:06:23.847Z,984.81
2018-04-11T10:07:23.958Z,984.80
2018-04-11T10:08:24.060Z,984.76
2018-04-11T10:09:24.189Z,984.74
2018-04-11T10:10:24.281Z,984.75
2018-04-11T10:11:24.649Z,984.72
2018-04-11T10:12:24.529Z,984.70
2018-04-11T10:13:24.538Z,984.69
2018-04-11T10:14:24.631Z,984.69
2018-04-11T10:15:25.092Z,984.68
2018-04-11T10:16:24.832Z,984.67
2018-04-11T10:17:24.962Z,984.64
2018-04-11T10:18:25.049Z,984.68
2018-04-11T10:19:25.150Z,984.64
2018-04-11T10:20:25.401Z,984.63
2018-04-11T10:21:25.402Z,984.64
2018-04-11T10:22:25.743Z,984.66
2018-04-11T10:23:25.604Z,984.66
2018-04-11T10:24:26.136Z,984.64
2018-04-11T10:25:25.914Z,984.66
2018-04-11T10:26:25.898Z,984.65
2018-04-11T10:27:26.033Z,984.63
2018-04-11T10:28:26.172Z,984.68
2018-04-11T10:29:26.339Z,984.67
2018-04-11T10:30:26.433Z,984.70
2018-04-11T10:31:26.603Z,984.65
2018-04-11T10:32:26.561Z,984.68
2018-04-11T10:33:26.556Z,984.66
2018-04-11T10:34:26.688Z,984.67
2018-04-11T10:35:26.809Z,984.60
2018-04-11T10:36:26.932Z,984.62
2018-04-11T10:37:27.024Z,984.62
2018-04-11T10:38:27.143Z,984.60
2018-04-11T10:39:27.362Z,984.64
2018-04-11T10:40:27.420Z,984.64
2018-04-11T10:41:27.575Z,984.65
2018-04-11T10:42:27.716Z,984.67
2018-04-11T10:43:27.642Z,984.71
2018-04-11T10:44:27.751Z,984.69
2018-04-11T10:45:27.888Z,984.73
2018-04-11T10:46:28.153Z,984.68
2018-04-11T10:47:28.094Z,984.67
2018-04-11T10:48:28.337Z,984.67
2018-04-11T10:49:28.367Z,984.65
2018-04-11T10:50:28.462Z,984.64
2018-04-11T10:51:28.580Z,984.60
2018-04-11T10:52:28.823Z,984.68
2018-04-11T10:53:28.768Z,984.59
2018-04-11T10:54:28.875Z,984.57
2018-04-11T10:55:28.967Z,984.53
2018-04-11T10:56:29.071Z,984.54
2018-04-11T10:57:29.187Z,984.62
2018-04-11T10:58:29.274Z,984.63
2018-04-11T10:59:29.428Z,984.58
2018-04-11T11:00:29.591Z,984.60
2018-04-11T11:01:29.686Z,984.56
2018-04-11T11:02:29.738Z,984.58
2018-04-11T11:03:29.822Z,984.51
2018-04-11T11:04:29.952Z,984.51
2018-04-11T11:05:30.114Z,984.51
2018-04-11T11:06:30.275Z,984.47
2018-04-11T11:07:30.285Z,984.44
2018-04-11T11:08:30.378Z,984.48
2018-04-11T11:09:30.526Z,984.53
2018-04-11T11:10:30.661Z,984.50
2018-04-11T11:11:30.794Z,984.47
2018-04-11T11:12:30.894Z,984.45
2018-04-11T11:13:31.004Z,984.48
2018-04-11T11:14:31.161Z,984.43
2018-04-11T11:15:31.256Z,984.44
2018-04-11T11:16:31.355Z,984.45
2018-04-11T11:17:31.584Z,984.43
2018-04-11T11:18:31.584Z,984.39
2018-04-11T11:19:31.941Z,984.38
2018-04-11T11:20:31.975Z,984.34
2018-04-11T11:21:31.959Z,984.31
2018-04-11T11:22:32.116Z,984.26
2018-04-11T11:23:32.220Z,984.24
2018-04-11T11:24:32.315Z,984.22
2018-04-11T11:25:32.405Z,984.21
2018-04-11T11:26:32.552Z,984.19
2018-04-11T11:27:32.672Z,984.19
2018-04-11T11:28:32.776Z,984.19
2018-04-11T11:29:32.900Z,984.17
2018-04-11T11:30:32.991Z,984.11
2018-04-11T11:31:33.096Z,984.13
2018-04-11T11:32:33.194Z,984.16
2018-04-11T11:33:33.290Z,984.17
2018-04-11T11:34:33.381Z,984.18
2018-04-11T11:35:33.489Z,984.21
2018-04-11T11:36:33.581Z,984.24
2018-04-11T11:37:33.738Z,984.21
2018-04-11T11:38:33.756Z,984.19
2018-04-11T11:39:33.854Z,984.23
2018-04-11T11:40:33.996Z,984.19
2018-04-11T11:41:34.091Z,984.18
2018-04-11T11:42:34.180Z,984.12
2018-04-11T11:43:34.290Z,984.05
2018-04-11T11:44:35.901Z,984.10
2018-04-11T11:45:34.680Z,984.10
2018-04-11T11:46:34.662Z,984.09
2018-04-11T11:47:34.747Z,984.08
2018-04-11T11:48:34.915Z,984.06
2018-04-11T11:49:35.024Z,984.08
2018-04-11T11:50:35.120Z,984.14
2018-04-11T11:51:35.212Z,984.11
2018-04-11T11:52:35.307Z,984.10
2018-04-11T11:53:35.401Z,984.08
2018-04-11T11:54:35.487Z,984.08
2018-04-11T11:55:35.587Z,984.04
2018-04-11T11:56:35.679Z,984.05
2018-04-11T11:57:35.769Z,984.07
2018-04-11T11:58:35.860Z,984.02
2018-04-11T11:59:35.943Z,984.03
2018-04-11T12:00:36.070Z,984.03
2018-04-11T12:01:36.155Z,984.05
2018-04-11T12:02:36.261Z,984.00
2018-04-11T12:03:36.294Z,983.97
2018-04-11T12:04:36.418Z,983.96
2018-04-11T12:05:36.524Z,983.96
2018-04-11T12:06:36.625Z,983.96
2018-04-11T12:07:36.733Z,983.98
2018-04-11T12:08:36.826Z,983.99
2018-04-11T12:09:36.925Z,983.96
2018-04-11T12:10:37.035Z,983.96
2018-04-11T12:11:37.126Z,983.94
2018-04-11T12:12:37.209Z,983.97
2018-04-11T12:13:37.349Z,983.92
2018-04-11T12:14:37.492Z,983.94
2018-04-11T12:15:37.647Z,983.94
2018-04-11T12:16:37.660Z,983.90
2018-04-11T12:17:37.761Z,983.98
2018-04-11T12:18:37.859Z,983.97
2018-04-11T12:19:37.962Z,983.96
2018-04-11T12:20:38.077Z,983.95
2018-04-11T12:21:38.223Z,983.97
2018-04-11T12:22:38.328Z,983.92
2018-04-11T12:23:38.424Z,983.92
2018-04-11T12:24:38.525Z,983.91
2018-04-11T12:25:38.623Z,983.86
2018-04-11T12:26:38.724Z,983.84
2018-04-11T12:27:38.825Z,983.83
2018-04-11T12:28:38.925Z,983.77
2018-04-11T12:29:39.030Z,983.76